createdAt,value
2023-01-25T00:00:31.188Z,103386.84
2023-01-25T00:03:00.969Z,103389.08
2023-01-25T00:05:30.992Z,103380.60
2023-01-25T00:08:00.836Z,103377.75
2023-01-25T00:10:30.587Z,103370.70
2023-01-25T00:13:00.410Z,103361.62
2023-01-25T00:15:30.773Z,103358.84
2023-01-25T00:18:00.500Z,103356.11
2023-01-25T00:20:30.239Z,103354.75
2023-01-25T00:23:00.038Z,103353.52
2023-01-25T00:25:29.762Z,103349.95
2023-01-25T00:27:59.685Z,103343.13
2023-01-25T00:30:29.574Z,103339.78
2023-01-25T00:33:38.976Z,103332.07
2023-01-25T00:36:34.669Z,103323.25
2023-01-25T00:39:13.417Z,103312.19
2023-01-25T00:41:44.067Z,103303.34
2023-01-25T00:44:14.036Z,103293.63
2023-01-25T00:46:44.077Z,103283.70
2023-01-25T00:49:26.181Z,103279.34
2023-01-25T00:51:55.908Z,103280.54
2023-01-25T00:54:25.928Z,103284.22
2023-01-25T00:56:56.710Z,103280.64
2023-01-25T00:59:26.594Z,103275.55
2023-01-25T01:01:57.099Z,103271.89
2023-01-25T01:04:26.652Z,103269.93
2023-01-25T01:06:56.656Z,103263.47
2023-01-25T01:09:26.738Z,103263.81
2023-01-25T01:11:56.505Z,103265.60
2023-01-25T01:14:26.335Z,103267.91
2023-01-25T01:16:57.041Z,103272.23
2023-01-25T01:19:26.392Z,103275.64
2023-01-25T01:21:54.556Z,103278.39
2023-01-25T01:24:23.127Z,103273.98
2023-01-25T01:26:51.518Z,103281.20
2023-01-25T01:29:19.908Z,103273.42
2023-01-25T01:31:52.679Z,103272.05
2023-01-25T01:34:22.831Z,103269.02
2023-01-25T01:36:52.660Z,103267.48
2023-01-25T01:39:22.549Z,103270.27
2023-01-25T01:41:52.528Z,103268.69
2023-01-25T01:44:50.064Z,103270.32
2023-01-25T01:47:24.830Z,103268.21
2023-01-25T01:50:16.935Z,103273.94
2023-01-25T01:52:47.484Z,103269.35
2023-01-25T01:55:24.147Z,103269.41
2023-01-25T01:57:58.503Z,103269.64
2023-01-25T02:00:38.213Z,103264.39
2023-01-25T02:03:12.313Z,103262.73
2023-01-25T02:06:03.319Z,103259.05
2023-01-25T02:08:36.718Z,103261.22
2023-01-25T02:11:09.289Z,103263.31
2023-01-25T02:13:39.777Z,103260.95
2023-01-25T02:16:25.849Z,103262.92
2023-01-25T02:19:02.013Z,103261.27
2023-01-25T02:21:43.495Z,103264.20
2023-01-25T02:24:26.462Z,103257.34
2023-01-25T02:26:57.221Z,103254.02
2023-01-25T02:29:29.781Z,103252.54
2023-01-25T02:32:05.356Z,103252.45
2023-01-25T02:34:36.345Z,103252.90
2023-01-25T02:37:06.299Z,103251.29
2023-01-25T02:39:36.232Z,103252.38
2023-01-25T02:42:09.754Z,103249.87
2023-01-25T02:44:41.537Z,103249.77
2023-01-25T02:47:11.379Z,103246.77
2023-01-25T02:49:41.398Z,103242.86
2023-01-25T02:52:11.327Z,103237.22
2023-01-25T02:54:41.160Z,103231.48
2023-01-25T02:57:11.008Z,103229.16
2023-01-25T02:59:40.897Z,103230.33
2023-01-25T03:02:10.736Z,103231.11
2023-01-25T03:04:40.642Z,103222.56
2023-01-25T03:07:10.513Z,103225.33
2023-01-25T03:09:40.215Z,103223.10
2023-01-25T03:12:14.229Z,103219.52
2023-01-25T03:14:44.584Z,103218.16
2023-01-25T03:17:14.376Z,103217.27
2023-01-25T03:19:44.244Z,103212.16
2023-01-25T03:22:14.075Z,103212.14
2023-01-25T03:24:43.798Z,103212.46
2023-01-25T03:27:18.561Z,103215.42
2023-01-25T03:29:47.418Z,103214.48
2023-01-25T03:32:15.650Z,103210.70
2023-01-25T03:34:44.159Z,103210.55
2023-01-25T03:37:12.938Z,103206.34
2023-01-25T03:39:40.990Z,103201.62
2023-01-25T03:42:14.011Z,103193.34
2023-01-25T03:44:43.771Z,103196.48
2023-01-25T03:47:14.016Z,103195.02
2023-01-25T03:49:43.890Z,103196.38
2023-01-25T03:52:13.774Z,103200.61
2023-01-25T03:54:43.610Z,103199.34
2023-01-25T03:57:13.515Z,103199.19
2023-01-25T03:59:43.414Z,103197.69
2023-01-25T04:02:14.710Z,103191.70
2023-01-25T04:04:44.511Z,103186.36
2023-01-25T04:07:14.386Z,103181.45
2023-01-25T04:09:44.194Z,103174.89
2023-01-25T04:12:18.193Z,103171.48
2023-01-25T04:14:47.924Z,103165.81
2023-01-25T04:17:17.746Z,103163.70
2023-01-25T04:19:47.528Z,103160.98
2023-01-25T04:22:17.557Z,103152.80
2023-01-25T04:24:47.298Z,103148.95
2023-01-25T04:27:17.010Z,103147.38
2023-01-25T04:29:46.751Z,103142.59
2023-01-25T04:32:16.528Z,103133.52
2023-01-25T04:34:46.480Z,103131.54
2023-01-25T04:37:16.348Z,103136.19
2023-01-25T04:39:44.681Z,103133.34
2023-01-25T04:42:18.084Z,103130.06
2023-01-25T04:44:47.430Z,103128.27
2023-01-25T04:47:15.991Z,103126.52
2023-01-25T04:49:44.643Z,103123.46
2023-01-25T04:52:12.863Z,103124.22
2023-01-25T04:54:41.300Z,103119.87
2023-01-25T04:57:09.635Z,103118.39
2023-01-25T04:59:38.017Z,103119.80
2023-01-25T05:02:06.457Z,103112.48
2023-01-25T05:04:34.849Z,103105.70
2023-01-25T05:07:03.391Z,103105.45
2023-01-25T05:09:31.857Z,103104.23
2023-01-25T05:12:00.054Z,103098.69
2023-01-25T05:14:28.469Z,103095.90
2023-01-25T05:16:56.974Z,103094.13
2023-01-25T05:19:24.157Z,103093.83
2023-01-25T05:21:59.670Z,103094.66
2023-01-25T05:24:32.850Z,103096.91
2023-01-25T05:27:03.950Z,103094.17
2023-01-25T05:29:43.264Z,103091.75
2023-01-25T05:32:15.732Z,103089.83
2023-01-25T05:34:46.578Z,103085.58
2023-01-25T05:37:21.644Z,103084.80
2023-01-25T05:39:51.323Z,103087.18
2023-01-25T05:42:21.253Z,103089.64
2023-01-25T05:44:51.061Z,103092.71
2023-01-25T05:47:20.824Z,103090.41
2023-01-25T05:49:50.608Z,103090.33
2023-01-25T05:52:20.370Z,103087.98
2023-01-25T05:54:49.591Z,103087.66
2023-01-25T05:57:18.301Z,103092.06
2023-01-25T05:59:45.720Z,103091.09
2023-01-25T06:02:15.620Z,103099.57
2023-01-25T06:04:45.575Z,103091.71
2023-01-25T06:07:15.358Z,103091.81
2023-01-25T06:09:45.160Z,103087.48
2023-01-25T06:12:21.934Z,103080.01
2023-01-25T06:14:51.848Z,103077.67
2023-01-25T06:17:19.450Z,103075.63
2023-01-25T06:19:46.550Z,103075.29
2023-01-25T06:22:16.271Z,103075.10
2023-01-25T06:24:46.086Z,103071.85
2023-01-25T06:27:15.942Z,103068.06
2023-01-25T06:29:45.732Z,103065.20
2023-01-25T06:32:15.496Z,103063.22
2023-01-25T06:34:46.447Z,103064.86
2023-01-25T06:37:15.561Z,103067.86
2023-01-25T06:39:45.366Z,103063.64
2023-01-25T06:42:19.255Z,103070.92
2023-01-25T06:44:48.160Z,103073.45
2023-01-25T06:47:15.812Z,103075.24
2023-01-25T06:49:45.587Z,103075.07
2023-01-25T06:52:15.357Z,103070.33
2023-01-25T06:54:45.214Z,103061.06
2023-01-25T06:57:15.162Z,103056.37
2023-01-25T06:59:44.930Z,103055.12
2023-01-25T07:02:16.218Z,103046.66
2023-01-25T07:09:14.696Z,103032.23
2023-01-25T07:11:44.447Z,103030.04
2023-01-25T07:14:14.193Z,103033.21
2023-01-25T07:16:44.022Z,103028.57
2023-01-25T07:19:13.896Z,103026.18
2023-01-25T07:21:43.658Z,103027.47
2023-01-25T07:24:19.841Z,103030.38
2023-01-25T07:26:49.977Z,103027.25
2023-01-25T07:29:19.805Z,103029.29
2023-01-25T07:31:49.636Z,103025.52
2023-01-25T07:34:19.584Z,103022.55
2023-01-25T07:36:49.410Z,103024.63
2023-01-25T07:39:19.219Z,103015.55
2023-01-25T07:41:48.993Z,103011.20
2023-01-25T07:44:18.717Z,103004.62
2023-01-25T07:46:48.588Z,103004.88
2023-01-25T07:49:18.508Z,103008.95
2023-01-25T07:51:48.242Z,103005.40
2023-01-25T07:54:18.064Z,103001.36
2023-01-25T07:56:48.786Z,103001.43
2023-01-25T07:59:18.498Z,103002.02
2023-01-25T08:01:47.069Z,102993.96
2023-01-25T08:04:15.475Z,102995.63
2023-01-25T08:06:45.714Z,102994.83
2023-01-25T08:09:20.020Z,102989.20
2023-01-25T08:11:50.259Z,102988.20
2023-01-25T08:14:19.983Z,102990.05
2023-01-25T08:16:49.760Z,102988.24
2023-01-25T08:19:20.462Z,102981.20
2023-01-25T08:21:50.596Z,102979.61
2023-01-25T08:24:21.099Z,102977.48
2023-01-25T08:26:50.805Z,102976.06
2023-01-25T08:29:20.606Z,102973.59
2023-01-25T08:31:50.486Z,102974.13
2023-01-25T08:34:20.537Z,102972.41
2023-01-25T08:39:24.704Z,102962.15
2023-01-25T08:41:54.474Z,102963.02
2023-01-25T08:44:24.098Z,102966.84
2023-01-25T08:46:53.170Z,102968.96
2023-01-25T08:49:21.611Z,102965.62
2023-01-25T08:51:50.417Z,102967.02
2023-01-25T08:54:18.744Z,102966.22
2023-01-25T08:56:46.988Z,102966.66
2023-01-25T08:59:15.393Z,102964.86
2023-01-25T09:01:43.830Z,102965.58
2023-01-25T09:04:12.134Z,102965.05
2023-01-25T09:06:40.670Z,102964.69
2023-01-25T09:09:09.172Z,102972.05
2023-01-25T09:11:38.233Z,102972.76
2023-01-25T09:14:07.960Z,102969.38
2023-01-25T09:16:36.513Z,102967.95
2023-01-25T09:19:06.191Z,102958.98
2023-01-25T09:21:34.555Z,102955.23
2023-01-25T09:24:07.274Z,102958.73
2023-01-25T09:26:40.837Z,102959.45
2023-01-25T09:29:11.984Z,102963.30
2023-01-25T09:31:43.921Z,102958.39
2023-01-25T09:34:16.100Z,102955.48
2023-01-25T09:36:45.810Z,102953.42
2023-01-25T09:39:15.591Z,102950.53
2023-01-25T09:42:24.335Z,102946.27
2023-01-25T09:45:18.402Z,102940.03
2023-01-25T09:48:35.354Z,102932.54
2023-01-25T09:51:40.111Z,102931.88
2023-01-25T09:54:11.076Z,102933.41
2023-01-25T09:56:41.377Z,102931.70
2023-01-25T09:59:19.989Z,102929.09
2023-01-25T10:01:55.969Z,102930.21
2023-01-25T10:04:35.462Z,102933.14
2023-01-25T10:07:20.781Z,102931.25
2023-01-25T10:10:39.333Z,102929.45
2023-01-25T10:13:23.114Z,102926.94
2023-01-25T10:16:05.187Z,102921.27
2023-01-25T10:19:10.046Z,102916.48
2023-01-25T10:21:49.952Z,102913.75
2023-01-25T10:24:44.319Z,102912.20
2023-01-25T10:28:08.946Z,102902.32
2023-01-25T10:30:58.403Z,102899.64
2023-01-25T10:33:34.857Z,102897.83
2023-01-25T10:36:07.475Z,102887.15
2023-01-25T10:38:42.669Z,102879.23
2023-01-25T10:41:59.420Z,102877.23
2023-01-25T10:44:29.342Z,102871.08
2023-01-25T10:47:17.076Z,102863.36
2023-01-25T10:49:52.111Z,102864.16
2023-01-25T10:52:26.953Z,102860.73
2023-01-25T10:55:26.226Z,102861.73
2023-01-25T10:58:00.931Z,102860.75
2023-01-25T11:00:40.817Z,102853.43
2023-01-25T11:03:22.438Z,102852.59
2023-01-25T11:05:56.997Z,102846.02
2023-01-25T11:08:31.893Z,102844.98
2023-01-25T11:11:15.314Z,102843.89
2023-01-25T11:13:42.751Z,102842.63
2023-01-25T11:16:23.637Z,102835.24
2023-01-25T11:18:57.020Z,102820.47
2023-01-25T11:21:34.077Z,102820.14
2023-01-25T11:24:10.143Z,102821.23
2023-01-25T11:26:41.754Z,102817.80
2023-01-25T11:29:24.305Z,102808.02
2023-01-25T11:31:57.717Z,102796.48
2023-01-25T11:34:29.634Z,102789.32
2023-01-25T11:37:34.527Z,102792.40
2023-01-25T11:40:16.322Z,102792.34
2023-01-25T11:43:38.483Z,102780.41
2023-01-25T11:46:27.970Z,102769.73
2023-01-25T11:49:27.260Z,102762.98
2023-01-25T11:52:25.972Z,102759.39
2023-01-25T11:55:31.637Z,102760.20
2023-01-25T11:58:16.540Z,102751.50
2023-01-25T12:01:17.689Z,102740.48
2023-01-25T12:04:12.350Z,102728.63
2023-01-25T12:07:03.997Z,102718.80
2023-01-25T12:09:58.011Z,102716.08
2023-01-25T12:12:46.405Z,102707.63
2023-01-25T12:15:49.095Z,102699.94
2023-01-25T12:18:41.915Z,102693.52
2023-01-25T12:21:48.497Z,102687.16
2023-01-25T12:24:33.485Z,102682.73
2023-01-25T12:27:47.292Z,102678.50
2023-01-25T12:30:55.559Z,102672.08
2023-01-25T12:33:41.514Z,102662.52
2023-01-25T12:36:28.000Z,102660.64
2023-01-25T12:39:12.961Z,102655.45
2023-01-25T12:41:54.194Z,102653.84
2023-01-25T12:44:57.657Z,102650.55
2023-01-25T12:47:46.394Z,102647.57
2023-01-25T12:50:25.295Z,102644.27
2023-01-25T12:53:04.802Z,102638.20
2023-01-25T12:55:34.629Z,102635.40
2023-01-25T12:58:14.216Z,102628.66
2023-01-25T13:01:01.557Z,102628.61
2023-01-25T13:04:04.962Z,102625.48
2023-01-25T13:07:07.118Z,102622.27
2023-01-25T13:09:58.280Z,102616.97
2023-01-25T13:12:26.958Z,102619.66
2023-01-25T13:14:56.799Z,102614.11
2023-01-25T13:17:34.846Z,102615.20
2023-01-25T13:20:41.712Z,102617.02
2023-01-25T13:23:33.991Z,102620.98
2023-01-25T13:26:22.158Z,102613.63
2023-01-25T13:28:59.478Z,102607.65
2023-01-25T13:31:51.134Z,102596.34
2023-01-25T13:34:40.379Z,102596.08
2023-01-25T13:37:24.409Z,102589.89
2023-01-25T13:40:08.095Z,102586.59
2023-01-25T13:42:39.680Z,102582.83
2023-01-25T13:45:21.600Z,102582.77
2023-01-25T13:48:27.668Z,102580.02
2023-01-25T13:51:12.280Z,102576.27
2023-01-25T13:53:43.390Z,102575.42
2023-01-25T13:56:33.508Z,102572.55
2023-01-25T13:59:01.231Z,102563.55
2023-01-25T14:01:33.589Z,102556.95
2023-01-25T14:04:05.415Z,102557.73
2023-01-25T14:06:40.140Z,102553.90
2023-01-25T14:09:20.725Z,102552.67
2023-01-25T14:12:04.079Z,102550.98
2023-01-25T14:14:35.936Z,102547.04
2023-01-25T14:17:18.759Z,102544.84
2023-01-25T14:19:54.268Z,102541.47
2023-01-25T14:22:30.399Z,102538.35
2023-01-25T14:25:16.991Z,102532.98
2023-01-25T14:27:50.716Z,102526.27
2023-01-25T14:30:26.887Z,102530.94
2023-01-25T14:33:00.756Z,102530.38
2023-01-25T14:35:43.002Z,102525.98
2023-01-25T14:38:26.203Z,102523.07
2023-01-25T14:41:24.861Z,102514.88
2023-01-25T14:44:03.424Z,102512.14
2023-01-25T14:46:38.465Z,102512.28
2023-01-25T14:49:25.702Z,102507.41
2023-01-25T14:52:10.942Z,102502.16
2023-01-25T14:54:54.365Z,102499.77
2023-01-25T14:57:36.974Z,102496.10
2023-01-25T15:00:23.896Z,102491.41
2023-01-25T15:02:57.584Z,102491.64
2023-01-25T15:05:31.349Z,102488.41
2023-01-25T15:08:06.925Z,102481.95
2023-01-25T15:10:52.861Z,102477.27
2023-01-25T15:13:28.293Z,102472.92
2023-01-25T15:16:03.821Z,102470.68
2023-01-25T15:18:54.108Z,102468.06
2023-01-25T15:21:32.250Z,102467.26
2023-01-25T15:24:10.615Z,102458.04
2023-01-25T15:26:40.401Z,102453.16
2023-01-25T15:29:22.473Z,102456.52
2023-01-25T15:31:53.509Z,102459.73
2023-01-25T15:34:35.164Z,102454.48
2023-01-25T15:37:04.220Z,102451.81
2023-01-25T15:39:34.919Z,102452.77
2023-01-25T15:42:08.959Z,102451.50
2023-01-25T15:44:38.936Z,102452.58
2023-01-25T15:47:10.072Z,102446.03
2023-01-25T15:49:39.858Z,102447.45
2023-01-25T15:52:11.109Z,102441.88
2023-01-25T15:54:48.619Z,102439.05
2023-01-25T15:57:36.418Z,102435.41
2023-01-25T16:00:15.038Z,102429.23
2023-01-25T16:02:44.491Z,102430.30
2023-01-25T16:05:15.155Z,102431.33
2023-01-25T16:07:46.007Z,102429.13
2023-01-25T16:10:24.891Z,102426.66
2023-01-25T16:12:52.169Z,102419.52
2023-01-25T16:15:20.368Z,102416.98
2023-01-25T16:17:48.701Z,102411.33
2023-01-25T16:20:21.354Z,102406.27
2023-01-25T16:22:48.761Z,102406.98
2023-01-25T16:25:17.069Z,102400.64
2023-01-25T16:27:45.545Z,102399.75
2023-01-25T16:30:24.027Z,102392.98
2023-01-25T16:32:54.164Z,102389.34
2023-01-25T16:35:23.957Z,102386.86
2023-01-25T16:37:53.694Z,102383.08
2023-01-25T16:40:38.585Z,102382.34
2023-01-25T16:43:08.360Z,102383.56
2023-01-25T16:45:39.776Z,102385.14
2023-01-25T16:48:16.890Z,102376.83
2023-01-25T16:50:45.680Z,102370.27
2023-01-25T16:53:14.024Z,102368.75
2023-01-25T16:55:42.735Z,102362.45
2023-01-25T16:58:10.894Z,102361.39
2023-01-25T17:00:39.278Z,102358.02
2023-01-25T17:03:07.840Z,102357.61
2023-01-25T17:05:38.265Z,102351.55
2023-01-25T17:08:07.795Z,102351.59
2023-01-25T17:10:38.069Z,102349.46
2023-01-25T17:13:08.714Z,102342.12
2023-01-25T17:15:38.451Z,102343.10
2023-01-25T17:18:08.249Z,102340.33
2023-01-25T17:20:39.271Z,102341.55
2023-01-25T17:23:09.346Z,102339.41
2023-01-25T17:25:40.672Z,102335.56
2023-01-25T17:28:10.410Z,102334.17
2023-01-25T17:30:41.233Z,102332.14
2023-01-25T17:33:13.070Z,102322.58
2023-01-25T17:35:42.592Z,102325.11
2023-01-25T17:38:12.527Z,102321.65
2023-01-25T17:40:42.360Z,102321.25
2023-01-25T17:43:12.138Z,102324.50
2023-01-25T17:45:41.998Z,102316.79
2023-01-25T17:48:12.732Z,102316.17
2023-01-25T17:50:42.550Z,102312.13
2023-01-25T17:53:12.489Z,102313.13
2023-01-25T17:55:42.250Z,102304.74
2023-01-25T17:58:12.050Z,102302.30
2023-01-25T18:00:41.917Z,102300.64
2023-01-25T18:03:11.961Z,102297.42
2023-01-25T18:05:41.740Z,102292.31
2023-01-25T18:08:12.448Z,102294.23
2023-01-25T18:10:42.263Z,102289.14
2023-01-25T18:13:12.117Z,102286.65
2023-01-25T18:15:41.853Z,102281.05
2023-01-25T18:18:11.601Z,102279.76
2023-01-25T18:20:41.596Z,102279.44
2023-01-25T18:23:11.307Z,102277.09
2023-01-25T18:25:41.021Z,102273.63
2023-01-25T18:28:13.893Z,102270.86
2023-01-25T18:30:53.547Z,102269.64
2023-01-25T18:33:21.715Z,102273.60
2023-01-25T18:35:51.070Z,102275.85
2023-01-25T18:38:18.206Z,102276.36
2023-01-25T18:40:47.381Z,102274.63
2023-01-25T18:43:17.112Z,102271.88
2023-01-25T18:45:55.885Z,102267.55
2023-01-25T18:48:31.007Z,102269.74
2023-01-25T18:51:09.545Z,102269.70
2023-01-25T18:53:42.739Z,102269.23
2023-01-25T18:56:18.819Z,102265.67
2023-01-25T18:58:50.995Z,102261.80
2023-01-25T19:01:22.979Z,102253.92
2023-01-25T19:03:53.250Z,102249.35
2023-01-25T19:06:24.700Z,102239.14
2023-01-25T19:08:56.435Z,102240.00
2023-01-25T19:11:27.098Z,102242.09
2023-01-25T19:13:58.579Z,102239.55
2023-01-25T19:16:28.532Z,102231.42
2023-01-25T19:18:58.243Z,102223.72
2023-01-25T19:21:28.391Z,102218.46
2023-01-25T19:23:59.053Z,102214.63
2023-01-25T19:26:28.971Z,102218.88
2023-01-25T19:28:58.733Z,102216.43
2023-01-25T19:31:32.009Z,102215.98
2023-01-25T19:34:05.711Z,102203.23
2023-01-25T19:36:36.976Z,102200.75
2023-01-25T19:39:10.097Z,102193.78
2023-01-25T19:41:39.946Z,102194.23
2023-01-25T19:44:14.047Z,102193.81
2023-01-25T19:46:43.950Z,102190.52
2023-01-25T19:49:14.568Z,102183.34
2023-01-25T19:51:48.828Z,102180.54
2023-01-25T19:54:19.621Z,102180.16
2023-01-25T19:56:49.614Z,102175.27
2023-01-25T19:59:23.271Z,102175.72
2023-01-25T20:01:53.804Z,102169.91
2023-01-25T20:04:24.848Z,102170.19
2023-01-25T20:06:54.733Z,102162.14
2023-01-25T20:09:27.626Z,102153.96
2023-01-25T20:11:57.789Z,102149.91
2023-01-25T20:14:27.663Z,102142.20
2023-01-25T20:16:57.515Z,102141.35
2023-01-25T20:19:27.413Z,102140.58
2023-01-25T20:21:59.412Z,102144.55
2023-01-25T20:24:30.179Z,102142.73
2023-01-25T20:26:59.975Z,102144.52
2023-01-25T20:29:30.055Z,102138.20
2023-01-25T20:31:58.236Z,102136.20
2023-01-25T20:34:26.862Z,102133.53
2023-01-25T20:36:55.230Z,102131.88
2023-01-25T20:39:23.863Z,102132.56
2023-01-25T20:41:53.636Z,102132.27
2023-01-25T20:44:23.395Z,102135.48
2023-01-25T20:46:52.859Z,102131.51
2023-01-25T20:49:20.298Z,102127.52
2023-01-25T20:51:48.939Z,102124.20
2023-01-25T20:54:18.330Z,102128.44
2023-01-25T20:56:48.185Z,102119.63
2023-01-25T20:59:19.497Z,102113.13
2023-01-25T21:01:50.287Z,102113.46
2023-01-25T21:04:20.281Z,102110.60
2023-01-25T21:06:50.003Z,102109.86
2023-01-25T21:09:19.863Z,102109.27
2023-01-25T21:11:49.736Z,102111.29
2023-01-25T21:14:20.433Z,102111.32
2023-01-25T21:16:49.972Z,102108.04
2023-01-25T21:19:19.729Z,102111.98
2023-01-25T21:21:49.621Z,102116.22
2023-01-25T21:24:19.371Z,102108.32
2023-01-25T21:26:49.176Z,102107.04
2023-01-25T21:29:21.089Z,102100.58
2023-01-25T21:31:53.129Z,102100.30
2023-01-25T21:34:23.049Z,102100.95
2023-01-25T21:36:52.783Z,102097.06
2023-01-25T21:39:22.500Z,102090.92
2023-01-25T21:41:52.340Z,102084.56
2023-01-25T21:44:40.832Z,102079.44
2023-01-25T21:50:32.634Z,102083.38
2023-01-25T21:52:59.864Z,102076.52
2023-01-25T21:55:29.593Z,102076.36
2023-01-25T21:57:59.372Z,102078.04
2023-01-25T22:00:29.503Z,102073.84
2023-01-25T22:02:58.948Z,102080.11
2023-01-25T22:05:28.847Z,102082.14
2023-01-25T22:07:59.084Z,102076.36
2023-01-25T22:10:28.966Z,102075.70
2023-01-25T22:12:58.644Z,102078.48
2023-01-25T22:15:28.519Z,102080.51
2023-01-25T22:17:58.346Z,102075.44
2023-01-25T22:20:25.618Z,102069.23
2023-01-25T22:22:52.459Z,102063.30
2023-01-25T22:25:22.303Z,102060.91
2023-01-25T22:27:59.897Z,102063.62
2023-01-25T22:30:31.109Z,102062.27
2023-01-25T22:33:00.108Z,102055.77
2023-01-25T22:35:29.915Z,102053.09
2023-01-25T22:37:59.691Z,102050.54
2023-01-25T22:40:29.470Z,102048.34
2023-01-25T22:42:58.277Z,102047.34
2023-01-25T22:45:26.341Z,102047.06
2023-01-25T22:47:54.791Z,102041.49
2023-01-25T22:50:23.438Z,102041.61
2023-01-25T22:52:51.566Z,102041.17
2023-01-25T22:55:20.081Z,102039.98
2023-01-25T22:57:48.483Z,102035.94
2023-01-25T23:00:17.705Z,102034.53
2023-01-25T23:02:45.293Z,102025.20
2023-01-25T23:05:13.942Z,102025.07
2023-01-25T23:07:43.009Z,102028.27
2023-01-25T23:10:11.745Z,102027.86
2023-01-25T23:12:38.996Z,102026.08
2023-01-25T23:15:15.374Z,102019.73
2023-01-25T23:18:03.612Z,102014.40
2023-01-25T23:20:34.900Z,102006.18
2023-01-25T23:23:04.223Z,102005.89
2023-01-25T23:25:34.082Z,102006.30
2023-01-25T23:28:04.027Z,102003.53
2023-01-25T23:30:33.915Z,101999.89
2023-01-25T23:33:03.990Z,102006.22
2023-01-25T23:35:33.814Z,102003.35
2023-01-25T23:38:03.819Z,102000.09
2023-01-25T23:40:33.650Z,101995.93
2023-01-25T23:43:03.366Z,101989.60
2023-01-25T23:45:33.156Z,101992.87
2023-01-25T23:48:02.977Z,101989.02
2023-01-25T23:50:32.798Z,101984.31
2023-01-25T23:53:02.617Z,101982.45
2023-01-25T23:55:32.426Z,101981.55
2023-01-25T23:58:03.837Z,101976.42
